createdAt,value
2023-08-16T00:02:36.218Z,7.82
2023-08-16T00:06:44.040Z,5.35
2023-08-16T00:10:46.981Z,6.20
2023-08-16T00:14:49.798Z,8.30
2023-08-16T00:18:53.278Z,5.88
2023-08-16T00:22:56.646Z,8.18
2023-08-16T00:26:59.634Z,8.25
2023-08-16T00:31:03.331Z,6.05
2023-08-16T00:35:09.033Z,5.10
2023-08-16T00:39:12.816Z,5.90
2023-08-16T00:43:16.042Z,7.78
2023-08-16T00:47:18.938Z,5.72
2023-08-16T00:51:22.855Z,7.55
2023-08-16T00:55:26.542Z,5.90
2023-08-16T00:59:29.982Z,6.82
2023-08-16T01:03:33.265Z,7.00
2023-08-16T01:07:36.133Z,5.63
2023-08-16T01:12:07.493Z,5.68
2023-08-16T01:16:11.464Z,4.95
2023-08-16T01:20:16.617Z,6.32
2023-08-16T01:24:33.852Z,6.45
2023-08-16T01:28:37.864Z,7.82
2023-08-16T01:32:41.318Z,9.05
2023-08-16T01:36:44.339Z,6.80
2023-08-16T01:40:53.973Z,5.68
2023-08-16T01:45:01.865Z,6.75
2023-08-16T01:49:05.665Z,7.03
2023-08-16T01:53:09.451Z,6.22
2023-08-16T01:57:13.889Z,7.93
2023-08-16T02:01:16.956Z,7.68
2023-08-16T02:05:19.801Z,7.97
2023-08-16T02:09:22.854Z,6.45
2023-08-16T02:13:25.700Z,8.60
2023-08-16T02:17:28.645Z,6.25
2023-08-16T02:21:31.821Z,7.18
2023-08-16T02:25:34.815Z,6.80
2023-08-16T02:29:37.726Z,7.13
2023-08-16T02:33:40.528Z,7.07
2023-08-16T02:37:43.849Z,8.82
2023-08-16T02:41:48.880Z,7.68
2023-08-16T02:45:54.744Z,6.85
2023-08-16T02:49:57.624Z,8.07
2023-08-16T02:54:00.410Z,6.80
2023-08-16T02:58:03.495Z,7.10
2023-08-16T03:02:06.368Z,7.00
2023-08-16T03:06:09.146Z,6.90
2023-08-16T03:10:13.199Z,6.63
2023-08-16T03:14:16.218Z,7.43
2023-08-16T03:18:19.170Z,7.18
2023-08-16T03:22:23.094Z,7.10
2023-08-16T03:26:26.084Z,7.75
2023-08-16T03:30:29.218Z,6.78
2023-08-16T03:34:33.100Z,11.80
2023-08-16T03:38:36.879Z,11.70
2023-08-16T03:42:40.753Z,7.90
2023-08-16T03:46:45.128Z,7.47
2023-08-16T03:50:49.189Z,8.25
2023-08-16T03:54:52.421Z,8.32
2023-08-16T03:58:55.225Z,7.68
2023-08-16T04:02:58.148Z,9.68
2023-08-16T04:07:01.421Z,7.47
2023-08-16T04:11:04.349Z,9.50
2023-08-16T04:15:08.440Z,9.23
2023-08-16T04:19:11.342Z,8.50
2023-08-16T04:23:14.294Z,8.38
2023-08-16T04:27:17.047Z,9.25
2023-08-16T04:31:20.214Z,8.95
2023-08-16T04:35:25.025Z,8.73
2023-08-16T04:39:28.083Z,8.63
2023-08-16T04:43:30.929Z,9.10
2023-08-16T04:47:34.321Z,10.68
2023-08-16T04:51:38.271Z,8.15
2023-08-16T04:55:42.038Z,9.20
2023-08-16T04:59:46.634Z,9.65
2023-08-16T05:03:53.986Z,8.65
2023-08-16T05:07:57.981Z,9.32
2023-08-16T05:12:00.968Z,8.48
2023-08-16T05:16:05.080Z,8.30
2023-08-16T05:20:08.787Z,9.25
2023-08-16T05:24:11.588Z,8.95
2023-08-16T05:28:14.690Z,8.93
2023-08-16T05:32:17.552Z,9.18
2023-08-16T05:36:20.385Z,9.60
2023-08-16T05:40:23.341Z,9.98
2023-08-16T05:44:35.471Z,8.85
2023-08-16T05:48:38.340Z,10.27
2023-08-16T05:52:41.547Z,9.68
2023-08-16T05:56:44.389Z,9.57
2023-08-16T06:00:48.316Z,9.30
2023-08-16T06:04:53.436Z,9.57
2023-08-16T06:08:56.793Z,10.32
2023-08-16T06:12:59.536Z,10.27
2023-08-16T06:17:02.467Z,10.65
2023-08-16T06:21:05.162Z,9.88
2023-08-16T06:25:09.907Z,10.63
2023-08-16T06:29:13.245Z,10.98
2023-08-16T06:33:16.156Z,10.95
2023-08-16T06:37:20.351Z,10.48
2023-08-16T06:41:23.125Z,9.77
2023-08-16T06:45:26.227Z,10.38
2023-08-16T06:49:29.071Z,10.45
2023-08-16T06:53:34.332Z,9.85
2023-08-16T06:57:37.586Z,10.02
2023-08-16T07:01:41.186Z,9.30
2023-08-16T07:05:44.032Z,9.10
2023-08-16T07:09:47.404Z,8.98
2023-08-16T07:13:50.366Z,8.38
2023-08-16T07:17:53.228Z,9.05
2023-08-16T07:21:56.366Z,9.65
2023-08-16T07:25:59.275Z,8.45
2023-08-16T07:30:02.370Z,9.05
2023-08-16T07:34:07.057Z,9.35
2023-08-16T07:38:10.227Z,9.90
2023-08-16T07:42:13.342Z,7.95
2023-08-16T07:46:16.711Z,9.70
2023-08-16T07:50:20.705Z,8.48
2023-08-16T07:54:25.793Z,8.60
2023-08-16T07:58:29.038Z,9.27
2023-08-16T08:02:44.865Z,10.75
2023-08-16T08:06:57.547Z,8.85
2023-08-16T08:15:09.231Z,8.57
2023-08-16T08:19:13.808Z,8.75
2023-08-16T08:23:19.377Z,10.35
2023-08-16T08:27:22.503Z,9.50
2023-08-16T08:31:25.552Z,8.50
2023-08-16T08:35:28.880Z,10.60
2023-08-16T08:39:34.605Z,8.85
2023-08-16T08:43:53.494Z,8.20
2023-08-16T08:48:02.352Z,8.10
2023-08-16T08:52:06.336Z,9.25
2023-08-16T08:56:17.122Z,8.30
2023-08-16T09:00:24.813Z,7.72
2023-08-16T09:04:32.051Z,7.25
2023-08-16T09:08:37.747Z,7.72
2023-08-16T09:12:41.386Z,7.93
2023-08-16T09:16:44.396Z,6.50
2023-08-16T09:20:47.680Z,8.30
2023-08-16T09:24:55.692Z,6.32
2023-08-16T09:29:04.702Z,6.68
2023-08-16T09:33:08.882Z,7.10
2023-08-16T09:37:13.887Z,7.00
2023-08-16T09:41:20.651Z,5.70
2023-08-16T09:45:38.202Z,7.57
2023-08-16T09:49:41.804Z,6.57
2023-08-16T09:53:49.260Z,7.15
2023-08-16T09:57:53.337Z,9.02
2023-08-16T10:02:13.287Z,5.70
2023-08-16T10:06:20.752Z,5.50
2023-08-16T10:10:24.051Z,6.57
2023-08-16T10:14:27.760Z,7.22
2023-08-16T10:18:31.930Z,6.10
2023-08-16T10:22:43.816Z,5.97
2023-08-16T10:26:49.322Z,5.53
2023-08-16T10:35:02.645Z,6.82
2023-08-16T10:39:07.003Z,6.85
2023-08-16T10:43:10.935Z,5.80
2023-08-16T10:47:15.635Z,6.60
2023-08-16T10:51:18.518Z,6.85
2023-08-16T10:55:26.720Z,6.05
2023-08-16T10:59:42.929Z,5.07
2023-08-16T11:03:47.406Z,7.65
2023-08-16T11:07:53.304Z,5.47
2023-08-16T11:12:01.874Z,5.55
2023-08-16T11:16:05.875Z,8.23
2023-08-16T11:20:11.136Z,10.35
2023-08-16T11:24:14.340Z,8.65
2023-08-16T11:28:20.816Z,8.68
2023-08-16T11:32:38.805Z,7.00
2023-08-16T11:36:44.484Z,6.38
2023-08-16T11:40:48.687Z,6.07
2023-08-16T11:44:51.643Z,6.15
2023-08-16T11:48:56.602Z,7.18
2023-08-16T11:53:01.601Z,6.50
2023-08-16T11:57:04.691Z,12.00
2023-08-16T12:01:11.012Z,7.55
2023-08-16T12:05:15.532Z,5.38
2023-08-16T12:09:20.261Z,5.85
2023-08-16T12:13:24.678Z,7.93
2023-08-16T12:17:27.768Z,5.70
2023-08-16T12:21:30.687Z,7.63
2023-08-16T12:25:36.224Z,5.57
2023-08-16T12:33:45.903Z,5.85
2023-08-16T12:37:50.333Z,6.38
2023-08-16T12:41:53.588Z,7.25
2023-08-16T12:45:56.775Z,5.50
2023-08-16T12:49:59.658Z,5.78
2023-08-16T12:54:02.919Z,7.60
2023-08-16T12:58:05.842Z,6.50
2023-08-16T13:02:14.592Z,5.93
2023-08-16T13:10:30.563Z,6.28
2023-08-16T13:18:46.027Z,6.47
2023-08-16T13:22:50.996Z,6.07
2023-08-16T13:31:06.029Z,5.47
2023-08-16T13:35:11.655Z,5.00
2023-08-16T13:39:27.320Z,6.53
2023-08-16T13:47:57.267Z,6.47
2023-08-16T13:52:00.932Z,6.75
2023-08-16T13:56:15.171Z,7.35
2023-08-16T14:00:35.551Z,6.45
2023-08-16T14:04:49.484Z,5.45
2023-08-16T14:08:53.437Z,6.80
2023-08-16T14:17:15.443Z,7.18
2023-08-16T14:21:19.025Z,4.90
2023-08-16T14:25:27.783Z,5.10
2023-08-16T14:29:31.352Z,5.38
2023-08-16T14:33:36.522Z,5.57
2023-08-16T14:37:47.706Z,5.28
2023-08-16T14:41:51.612Z,4.78
2023-08-16T14:45:54.704Z,5.15
2023-08-16T14:49:58.461Z,4.57
2023-08-16T14:54:08.128Z,5.20
2023-08-16T14:58:11.585Z,5.30
2023-08-16T15:02:15.329Z,7.78
2023-08-16T15:06:18.585Z,8.55
2023-08-16T15:10:22.615Z,5.20
2023-08-16T15:14:30.972Z,8.07
2023-08-16T15:18:34.358Z,6.18
2023-08-16T15:22:37.800Z,6.68
2023-08-16T15:26:41.560Z,8.18
2023-08-16T15:31:00.439Z,6.43
2023-08-16T15:35:05.009Z,5.50
2023-08-16T15:39:08.758Z,6.97
2023-08-16T15:43:12.100Z,6.75
2023-08-16T15:47:16.674Z,6.63
2023-08-16T15:55:36.724Z,7.57
2023-08-16T15:59:48.105Z,6.10
2023-08-16T16:03:52.986Z,6.28
2023-08-16T16:07:57.762Z,7.00
2023-08-16T16:12:00.839Z,8.20
2023-08-16T16:20:14.418Z,5.95
2023-08-16T16:24:17.623Z,7.90
2023-08-16T16:28:20.706Z,5.05
2023-08-16T16:32:24.290Z,5.40
2023-08-16T16:36:28.033Z,9.57
2023-08-16T16:40:31.045Z,15.57
2023-08-16T16:44:34.551Z,22.38
2023-08-16T16:48:42.263Z,11.70
2023-08-16T16:52:45.323Z,5.28
2023-08-16T16:56:48.357Z,13.05
2023-08-16T17:00:51.863Z,5.75
2023-08-16T17:09:12.437Z,8.27
2023-08-16T17:13:21.084Z,5.95
2023-08-16T17:17:24.401Z,7.43
2023-08-16T17:21:28.147Z,5.72
2023-08-16T17:25:31.662Z,7.88
2023-08-16T17:29:35.757Z,6.47
2023-08-16T17:33:44.154Z,7.88
2023-08-16T17:37:58.162Z,10.15
2023-08-16T17:46:22.858Z,9.55
2023-08-16T17:50:29.946Z,7.97
2023-08-16T17:54:33.212Z,7.85
2023-08-16T17:58:36.681Z,8.63
2023-08-16T18:02:39.711Z,7.25
2023-08-16T18:06:42.823Z,6.93
2023-08-16T18:10:45.770Z,7.95
2023-08-16T18:14:48.883Z,7.00
2023-08-16T18:18:52.279Z,8.45
2023-08-16T18:23:00.473Z,7.40
2023-08-16T18:27:03.709Z,7.82
2023-08-16T18:31:08.213Z,7.57
2023-08-16T18:35:11.456Z,8.27
2023-08-16T18:39:14.367Z,8.48
2023-08-16T18:43:19.736Z,8.93
2023-08-16T18:47:24.392Z,7.72
2023-08-16T18:51:27.524Z,8.82
2023-08-16T18:55:30.655Z,9.52
2023-08-16T18:59:33.585Z,9.18
2023-08-16T19:03:36.429Z,12.70
2023-08-16T19:07:40.454Z,8.45
2023-08-16T19:11:43.334Z,8.13
2023-08-16T19:15:49.590Z,8.15
2023-08-16T19:19:52.451Z,8.82
2023-08-16T19:23:58.028Z,8.85
2023-08-16T19:28:01.219Z,9.02
2023-08-16T19:32:04.570Z,11.00
2023-08-16T19:36:08.133Z,8.90
2023-08-16T19:40:11.753Z,7.72
2023-08-16T19:44:14.612Z,8.75
2023-08-16T19:48:18.357Z,10.45
2023-08-16T19:52:21.921Z,11.63
2023-08-16T19:56:24.747Z,8.30
2023-08-16T20:00:31.517Z,8.43
2023-08-16T20:04:34.782Z,8.60
2023-08-16T20:08:37.736Z,9.23
2023-08-16T20:12:41.880Z,9.07
2023-08-16T20:16:44.853Z,11.60
2023-08-16T20:20:49.892Z,10.68
2023-08-16T20:24:52.761Z,10.18
2023-08-16T20:28:55.669Z,11.65
2023-08-16T20:33:00.649Z,8.80
2023-08-16T20:37:04.119Z,9.98
2023-08-16T20:41:07.153Z,10.00
2023-08-16T20:45:11.001Z,9.90
2023-08-16T20:49:15.677Z,9.73
2023-08-16T20:53:19.380Z,10.55
2023-08-16T20:57:22.509Z,9.50
2023-08-16T21:01:25.777Z,9.45
2023-08-16T21:05:28.683Z,10.27
2023-08-16T21:09:32.001Z,9.55
2023-08-16T21:13:34.895Z,10.65
2023-08-16T21:17:37.793Z,11.00
2023-08-16T21:21:40.664Z,10.30
2023-08-16T21:25:45.244Z,9.55
2023-08-16T21:29:48.298Z,11.38
2023-08-16T21:33:51.649Z,9.90
2023-08-16T21:37:55.594Z,9.85
2023-08-16T21:41:58.451Z,9.48
2023-08-16T21:46:01.357Z,9.23
2023-08-16T21:50:04.497Z,9.95
2023-08-16T21:54:07.458Z,11.75
2023-08-16T21:58:10.480Z,8.93
2023-08-16T22:02:14.133Z,9.45
2023-08-16T22:06:21.034Z,9.70
2023-08-16T22:10:23.968Z,9.18
2023-08-16T22:14:28.408Z,9.55
2023-08-16T22:18:31.804Z,9.57
2023-08-16T22:22:37.072Z,11.73
2023-08-16T22:26:40.939Z,9.48
2023-08-16T22:30:49.641Z,9.60
2023-08-16T22:45:29.007Z,10.13
2023-08-16T22:55:29.894Z,9.93
2023-08-16T22:59:47.407Z,10.40
2023-08-16T23:03:50.529Z,10.20
2023-08-16T23:07:56.786Z,10.82
2023-08-16T23:12:08.096Z,9.93
2023-08-16T23:16:31.571Z,9.40
2023-08-16T23:20:39.359Z,10.05
2023-08-16T23:24:50.577Z,10.30
2023-08-16T23:28:58.528Z,10.95
2023-08-16T23:33:04.893Z,10.85
2023-08-16T23:37:13.201Z,10.50
2023-08-16T23:41:18.260Z,11.80
2023-08-16T23:45:33.140Z,10.57
2023-08-16T23:49:42.606Z,9.63
2023-08-16T23:53:45.898Z,10.50
2023-08-16T23:57:54.740Z,10.90
